Time;durP1;ratioP1;P1;durP2;ratioP2;P2;SDS_P1;SDS_P2;PMS_P1;PMS_P2;Temp;Humidity;BMP_temperature;BMP_pressure;BME280_temperature;BME280_humidity;BME280_pressure;Samples;Min_cycle;Max_cycle;Signal;HPM_P1;HPM_P2
2023/08/09 00:00:02;;;;;;;2.65;1.40;;;14.70;99.90;;;;;;5031545;28;20108;-61
2023/08/09 00:02:28;;;;;;;3.35;1.25;;;14.70;99.90;;;;;;5030159;28;20710;-60
2023/08/09 00:04:53;;;;;;;5.15;1.48;;;14.70;99.90;;;;;;5026633;28;20520;-61
2023/08/09 00:07:19;;;;;;;3.38;1.50;;;14.60;99.90;;;;;;5033473;28;20025;-61
2023/08/09 00:09:45;;;;;;;2.60;1.58;;;14.50;99.90;;;;;;5028484;28;20108;-60
2023/08/09 00:12:10;;;;;;;2.20;1.55;;;14.50;99.90;;;;;;5030023;28;20026;-60
2023/08/09 00:14:36;;;;;;;1.90;1.73;;;14.50;99.90;;;;;;5029741;28;20026;-58
2023/08/09 00:17:01;;;;;;;3.35;1.77;;;14.30;99.90;;;;;;5026505;28;20028;-60
2023/08/09 00:19:27;;;;;;;4.18;1.98;;;14.20;99.90;;;;;;5028383;28;20041;-59
2023/08/09 00:21:53;;;;;;;3.15;2.15;;;14.10;99.90;;;;;;5031388;28;20044;-61
2023/08/09 00:24:18;;;;;;;3.90;2.25;;;14.00;99.90;;;;;;5024494;28;20117;-59
2023/08/09 00:26:44;;;;;;;3.78;2.00;;;13.90;99.90;;;;;;5024449;28;20393;-58
2023/08/09 00:29:10;;;;;;;8.30;2.90;;;13.80;99.90;;;;;;5027861;28;20030;-59
2023/08/09 00:31:35;;;;;;;4.63;2.63;;;13.80;99.90;;;;;;5023496;28;20026;-60
2023/08/09 00:34:01;;;;;;;5.75;3.38;;;13.70;99.90;;;;;;5025868;28;20056;-59
2023/08/09 00:36:27;;;;;;;5.38;3.58;;;13.60;99.90;;;;;;5026294;28;20048;-60
2023/08/09 00:38:52;;;;;;;3.60;3.30;;;13.60;99.90;;;;;;5021737;28;20554;-60
2023/08/09 00:41:18;;;;;;;5.82;4.20;;;13.50;99.90;;;;;;5024052;28;20147;-58
2023/08/09 00:43:44;;;;;;;4.82;3.60;;;13.50;99.90;;;;;;5024986;28;20435;-58
2023/08/09 00:46:10;;;;;;;5.47;3.92;;;13.60;99.90;;;;;;5024368;28;20037;-58
2023/08/09 00:48:36;;;;;;;6.53;4.55;;;13.60;99.90;;;;;;5024594;28;20644;-60
2023/08/09 00:51:02;;;;;;;5.05;4.03;;;13.60;99.90;;;;;;5025643;28;20034;-59
2023/08/09 00:53:28;;;;;;;6.97;4.70;;;13.50;99.90;;;;;;5024617;28;20385;-60
2023/08/09 00:55:54;;;;;;;7.18;4.30;;;13.60;99.90;;;;;;5025717;28;20038;-57
2023/08/09 00:58:19;;;;;;;4.95;4.55;;;13.50;99.90;;;;;;5026419;28;20040;-59
2023/08/09 01:00:45;;;;;;;14.48;4.75;;;13.60;99.90;;;;;;5026534;28;20040;-58
2023/08/09 01:03:11;;;;;;;4.50;4.20;;;13.60;99.90;;;;;;5025645;28;20495;-60
2023/08/09 01:05:49;;;;;;;6.32;4.13;;;13.50;99.90;;;;;;5026671;28;20025;-60
2023/08/09 01:08:26;;;;;;;5.85;4.28;;;13.50;99.90;;;;;;5015935;28;20107;-57
2023/08/09 01:11:09;;;;;;;7.55;4.63;;;13.50;99.90;;;;;;5014602;28;20099;-59
2023/08/09 01:13:37;;;;;;;7.63;4.25;;;13.50;99.90;;;;;;5009265;28;20376;-61
2023/08/09 01:16:05;;;;;;;6.25;4.75;;;13.50;99.90;;;;;;5020847;28;20026;-57
2023/08/09 01:18:31;;;;;;;6.22;5.00;;;13.40;99.90;;;;;;5029421;28;20033;-59
2023/08/09 01:21:00;;;;;;;8.13;5.72;;;13.40;99.90;;;;;;5032132;28;20031;-59
2023/08/09 01:23:36;;;;;;;9.00;5.72;;;13.40;99.90;;;;;;5034156;28;20504;-59
2023/08/09 01:26:04;;;;;;;6.38;5.78;;;13.40;99.90;;;;;;5030182;28;20026;-58
2023/08/09 01:28:31;;;;;;;8.25;6.35;;;13.30;99.90;;;;;;5027627;28;20057;-60
2023/08/09 01:30:57;;;;;;;7.47;6.55;;;13.30;99.90;;;;;;5032045;28;20033;-58
2023/08/09 01:33:24;;;;;;;7.50;6.90;;;13.30;99.90;;;;;;5033381;28;20029;-59
2023/08/09 01:35:55;;;;;;;10.75;7.28;;;13.30;99.90;;;;;;5030800;28;20049;-59
2023/08/09 01:38:26;;;;;;;8.60;7.53;;;13.30;99.90;;;;;;5030127;28;20022;-59
2023/08/09 01:40:52;;;;;;;;;;;13.30;99.90;;;;;;5023242;28;20041;-59
2023/08/09 01:43:18;;;;;;;15.30;7.80;;;13.30;99.90;;;;;;5022180;28;19909;-60
2023/08/09 01:45:44;;;;;;;14.65;7.90;;;13.30;99.90;;;;;;5037710;28;20048;-59
2023/08/09 01:48:10;;;;;;;12.32;8.05;;;13.30;99.90;;;;;;5027601;28;20033;-58
2023/08/09 01:50:35;;;;;;;13.02;7.72;;;13.30;99.90;;;;;;5024098;28;20025;-57
2023/08/09 01:53:01;;;;;;;13.07;7.97;;;13.30;99.90;;;;;;5025106;28;20513;-59
2023/08/09 01:55:27;;;;;;;8.18;7.32;;;13.40;99.90;;;;;;5023220;28;20116;-59
2023/08/09 01:57:54;;;;;;;11.55;7.10;;;13.40;99.90;;;;;;5022605;28;20034;-59
2023/08/09 02:00:22;;;;;;;18.50;8.50;;;13.40;99.90;;;;;;5023926;28;20034;-58
2023/08/09 02:02:49;;;;;;;15.65;8.45;;;13.40;99.90;;;;;;5023453;28;20091;-59
2023/08/09 02:05:16;;;;;;;11.30;8.32;;;13.40;99.90;;;;;;5030023;28;20112;-60
2023/08/09 02:07:42;;;;;;;21.17;8.35;;;13.40;99.90;;;;;;5027261;28;20573;-56
2023/08/09 02:10:10;;;;;;;18.42;7.93;;;13.50;99.90;;;;;;5030137;28;20120;-59
2023/08/09 02:12:36;;;;;;;13.38;9.30;;;13.50;99.90;;;;;;5028498;28;20040;-59
2023/08/09 02:15:02;;;;;;;11.55;8.45;;;13.60;99.90;;;;;;5026352;28;20038;-59
2023/08/09 02:17:27;;;;;;;27.05;9.68;;;13.60;99.90;;;;;;5032459;28;20018;-60
2023/08/09 02:19:53;;;;;;;35.90;10.00;;;13.60;99.90;;;;;;5029334;28;20045;-60
2023/08/09 02:22:20;;;;;;;30.75;10.60;;;13.60;99.90;;;;;;5029213;28;20091;-59
2023/08/09 02:24:46;;;;;;;23.65;9.00;;;13.50;99.90;;;;;;5022958;28;20132;-60
2023/08/09 02:27:13;;;;;;;26.58;8.63;;;13.50;99.90;;;;;;5024244;28;20117;-58
2023/08/09 02:29:38;;;;;;;7.90;7.15;;;13.50;99.90;;;;;;5029492;28;20034;-59
2023/08/09 02:32:04;;;;;;;18.00;7.90;;;13.50;99.90;;;;;;5030706;28;20539;-60
2023/08/09 02:34:30;;;;;;;8.93;7.13;;;13.60;99.90;;;;;;5029457;28;20043;-60
2023/08/09 02:36:56;;;;;;;30.50;8.40;;;13.60;99.90;;;;;;5029832;28;20025;-59
2023/08/09 02:39:22;;;;;;;17.98;6.95;;;13.60;99.90;;;;;;5030624;28;20112;-59
2023/08/09 02:41:48;;;;;;;16.45;7.85;;;13.60;99.90;;;;;;5029727;28;20068;-59
2023/08/09 02:44:14;;;;;;;26.83;7.95;;;13.60;99.90;;;;;;5031798;28;20529;-59
2023/08/09 02:46:40;;;;;;;14.57;6.38;;;13.60;99.90;;;;;;5028954;28;20068;-60
2023/08/09 02:49:05;;;;;;;37.17;7.85;;;13.60;99.90;;;;;;5030856;28;20061;-59
2023/08/09 02:51:32;;;;;;;22.23;8.32;;;13.60;99.90;;;;;;5030569;28;20397;-59
2023/08/09 02:54:05;;;;;;;21.48;7.75;;;13.60;99.90;;;;;;5028472;28;20451;-60
2023/08/09 02:56:32;;;;;;;20.73;8.05;;;13.60;99.90;;;;;;5027354;28;20060;-60
2023/08/09 02:58:59;;;;;;;23.95;9.32;;;13.70;99.90;;;;;;5043531;28;20065;-60
2023/08/09 03:01:25;;;;;;;16.27;8.50;;;13.70;99.90;;;;;;5029070;28;20088;-58
2023/08/09 03:03:52;;;;;;;14.75;7.68;;;13.70;99.90;;;;;;5028876;28;20026;-60
2023/08/09 03:06:21;;;;;;;21.83;7.43;;;13.70;99.90;;;;;;5024772;28;20034;-59
2023/08/09 03:08:46;;;;;;;13.50;6.90;;;13.70;99.90;;;;;;5026581;28;20517;-60
2023/08/09 03:11:13;;;;;;;10.23;6.35;;;13.70;99.90;;;;;;5029405;28;20053;-59
2023/08/09 03:13:39;;;;;;;11.00;6.20;;;13.70;99.90;;;;;;5029874;28;20372;-58
2023/08/09 03:16:05;;;;;;;10.68;6.05;;;13.60;99.90;;;;;;5028809;28;20492;-58
2023/08/09 03:18:31;;;;;;;12.07;5.95;;;13.60;99.90;;;;;;5026583;28;20028;-57
2023/08/09 03:20:56;;;;;;;18.55;7.45;;;13.60;99.90;;;;;;5025089;28;20022;-60
2023/08/09 03:23:22;;;;;;;12.55;6.75;;;13.60;99.90;;;;;;5027905;28;20018;-59
2023/08/09 03:25:48;;;;;;;21.70;6.53;;;13.60;99.90;;;;;;5026132;28;20522;-59
2023/08/09 03:28:14;;;;;;;9.00;6.80;;;13.60;99.90;;;;;;5025045;28;20033;-59
2023/08/09 03:30:40;;;;;;;36.60;8.00;;;13.60;99.90;;;;;;5027841;28;20132;-59
2023/08/09 03:33:05;;;;;;;16.50;7.63;;;13.60;99.90;;;;;;5027374;28;20047;-58
2023/08/09 03:35:31;;;;;;;15.98;8.07;;;13.60;99.90;;;;;;5028500;28;20114;-60
2023/08/09 03:37:57;;;;;;;20.88;9.55;;;13.50;99.90;;;;;;5028353;28;20394;-61
2023/08/09 03:40:23;;;;;;;22.00;9.05;;;13.50;99.90;;;;;;5028430;28;20517;-61
2023/08/09 03:42:49;;;;;;;13.70;8.70;;;13.50;99.90;;;;;;5028834;28;20053;-58
2023/08/09 03:45:14;;;;;;;28.40;10.80;;;13.50;99.90;;;;;;5024719;28;20399;-59
2023/08/09 03:47:40;;;;;;;16.35;9.18;;;13.50;99.90;;;;;;5029056;28;20192;-60
2023/08/09 03:50:06;;;;;;;30.35;10.88;;;13.50;99.90;;;;;;5028757;28;20389;-60
2023/08/09 03:52:33;;;;;;;23.65;10.55;;;13.50;99.90;;;;;;5024588;28;20034;-58
2023/08/09 03:54:59;;;;;;;32.33;10.93;;;13.60;99.90;;;;;;5026796;28;20057;-60
2023/08/09 03:57:24;;;;;;;23.50;10.55;;;13.60;99.90;;;;;;5023557;28;20111;-61
2023/08/09 03:59:50;;;;;;;39.28;12.32;;;13.60;99.90;;;;;;5026955;28;20025;-59
2023/08/09 04:02:17;;;;;;;11.70;9.55;;;13.60;99.90;;;;;;5033026;28;20398;-60
2023/08/09 04:04:43;;;;;;;17.58;9.25;;;13.60;99.90;;;;;;5033009;28;20071;-60
2023/08/09 04:07:09;;;;;;;37.72;11.45;;;13.60;99.90;;;;;;5033819;28;20343;-60
2023/08/09 04:09:35;;;;;;;13.73;9.35;;;13.70;99.90;;;;;;5023767;28;20396;-60
2023/08/09 04:12:01;;;;;;;37.22;12.20;;;13.70;99.90;;;;;;5020448;28;20048;-60
2023/08/09 04:14:27;;;;;;;53.75;11.30;;;13.70;99.90;;;;;;5032000;28;20021;-58
2023/08/09 04:16:53;;;;;;;18.75;11.27;;;13.70;99.90;;;;;;5032678;28;20033;-60
2023/08/09 04:19:19;;;;;;;15.43;12.80;;;13.70;99.90;;;;;;5030553;28;20516;-58
2023/08/09 04:21:44;;;;;;;22.30;13.27;;;13.60;99.90;;;;;;5028594;28;20494;-59
2023/08/09 04:24:10;;;;;;;13.15;11.98;;;13.70;99.90;;;;;;5016858;28;20104;-58
2023/08/09 04:26:36;;;;;;;13.90;12.45;;;13.70;99.90;;;;;;5019713;28;20017;-58
2023/08/09 04:29:03;;;;;;;24.63;13.70;;;13.70;99.90;;;;;;5022699;28;20033;-60
2023/08/09 04:31:29;;;;;;;24.30;13.15;;;13.70;99.90;;;;;;5025596;28;20037;-60
2023/08/09 04:33:54;;;;;;;55.13;12.38;;;13.70;99.90;;;;;;5028222;28;20116;-59
2023/08/09 04:36:20;;;;;;;17.38;12.43;;;13.80;99.90;;;;;;5025871;28;20029;-60
2023/08/09 04:38:46;;;;;;;19.48;12.10;;;13.80;99.90;;;;;;5023433;28;20082;-59
2023/08/09 04:41:12;;;;;;;15.20;12.75;;;13.80;99.90;;;;;;5031344;28;20076;-58
2023/08/09 04:43:43;;;;;;;15.13;11.65;;;13.80;99.90;;;;;;5030686;28;20379;-60
2023/08/09 04:46:12;;;;;;;12.67;11.57;;;13.80;99.90;;;;;;5030620;28;20033;-60
2023/08/09 04:48:38;;;;;;;13.27;11.90;;;13.80;99.90;;;;;;5026313;28;20383;-58
2023/08/09 04:51:05;;;;;;;12.90;11.20;;;13.80;99.90;;;;;;5028654;28;20147;-57
2023/08/09 04:53:30;;;;;;;22.50;13.40;;;13.70;99.90;;;;;;5024811;28;20112;-59
2023/08/09 04:55:56;;;;;;;17.48;11.77;;;13.80;99.90;;;;;;5023191;28;20061;-59
2023/08/09 04:58:21;;;;;;;17.25;11.48;;;13.80;99.90;;;;;;5021084;28;20540;-59
2023/08/09 05:00:47;;;;;;;11.57;10.45;;;13.80;99.90;;;;;;5024797;28;20645;-59
2023/08/09 05:03:13;;;;;;;16.33;12.13;;;13.80;99.90;;;;;;5031670;28;20030;-59
2023/08/09 05:05:38;;;;;;;11.63;10.63;;;13.80;99.90;;;;;;5028902;28;20560;-58
2023/08/09 05:08:04;;;;;;;11.23;10.20;;;13.80;99.90;;;;;;5029969;28;20052;-57
2023/08/09 05:10:30;;;;;;;12.80;10.00;;;13.90;99.90;;;;;;5031578;28;20021;-59
2023/08/09 05:12:56;;;;;;;12.38;9.80;;;13.90;99.90;;;;;;5028183;28;20486;-60
2023/08/09 05:15:21;;;;;;;13.48;10.82;;;13.90;99.90;;;;;;5030141;28;20375;-60
2023/08/09 05:17:47;;;;;;;10.57;9.75;;;13.90;99.90;;;;;;5030959;28;20073;-60
2023/08/09 05:20:13;;;;;;;15.48;9.63;;;13.90;99.90;;;;;;5030304;28;20437;-58
2023/08/09 05:22:38;;;;;;;17.30;9.93;;;14.00;99.90;;;;;;5030867;28;20044;-60
2023/08/09 05:25:04;;;;;;;13.52;9.55;;;14.00;99.90;;;;;;5029373;28;20108;-59
2023/08/09 05:27:30;;;;;;;13.25;9.85;;;14.00;99.90;;;;;;5028776;28;20029;-58
2023/08/09 05:29:56;;;;;;;14.75;10.05;;;14.00;99.90;;;;;;5030846;28;20033;-58
2023/08/09 05:32:22;;;;;;;14.23;10.07;;;14.00;99.90;;;;;;5033604;28;20033;-59
2023/08/09 05:34:47;;;;;;;11.15;9.98;;;14.00;99.90;;;;;;5030507;28;20043;-59
2023/08/09 05:37:13;;;;;;;14.68;10.75;;;14.00;99.90;;;;;;5029250;28;20401;-59
2023/08/09 05:39:39;;;;;;;16.20;9.65;;;14.00;99.90;;;;;;5029632;28;20464;-59
2023/08/09 05:42:05;;;;;;;10.27;8.90;;;14.00;99.90;;;;;;5031146;28;20432;-58
2023/08/09 05:44:30;;;;;;;10.07;9.10;;;14.10;99.90;;;;;;5029125;28;20456;-58
2023/08/09 05:46:56;;;;;;;11.93;8.70;;;14.00;99.90;;;;;;5033868;28;20026;-57
2023/08/09 05:49:22;;;;;;;11.27;8.65;;;14.10;99.90;;;;;;5027587;28;20033;-59
2023/08/09 05:51:48;;;;;;;9.38;8.35;;;14.10;99.90;;;;;;5029744;28;20042;-56
2023/08/09 05:54:13;;;;;;;12.45;8.70;;;14.10;99.90;;;;;;5032290;28;20033;-58
2023/08/09 05:56:39;;;;;;;9.30;8.40;;;14.10;99.90;;;;;;5028995;28;20095;-59
2023/08/09 05:59:05;;;;;;;10.95;9.07;;;14.20;99.90;;;;;;5029023;28;20041;-58
2023/08/09 06:01:31;;;;;;;12.32;8.23;;;14.10;99.90;;;;;;5028604;28;20647;-58
2023/08/09 06:03:57;;;;;;;8.00;7.30;;;14.10;99.90;;;;;;5028160;28;20494;-59
2023/08/09 06:06:23;;;;;;;9.05;8.20;;;14.10;99.90;;;;;;5027306;28;20040;-59
2023/08/09 06:08:49;;;;;;;10.43;7.63;;;14.20;99.90;;;;;;5027904;28;20033;-60
2023/08/09 06:11:15;;;;;;;11.38;7.60;;;14.20;99.90;;;;;;5026487;28;20012;-59
2023/08/09 06:13:41;;;;;;;8.07;7.30;;;14.10;99.90;;;;;;5028307;28;20495;-58
2023/08/09 06:16:07;;;;;;;23.90;7.82;;;14.10;99.90;;;;;;5028608;28;20025;-62
2023/08/09 06:18:32;;;;;;;9.45;7.15;;;14.10;99.90;;;;;;5031053;28;20394;-59
2023/08/09 06:20:58;;;;;;;10.13;7.93;;;14.10;99.90;;;;;;5030016;28;20524;-60
2023/08/09 06:23:24;;;;;;;23.15;7.97;;;14.20;99.90;;;;;;5025251;28;20344;-59
2023/08/09 06:25:50;;;;;;;14.00;8.15;;;14.30;99.90;;;;;;5029108;28;20104;-58
2023/08/09 06:28:19;;;;;;;14.15;7.13;;;14.30;99.90;;;;;;5028020;28;20571;-58
2023/08/09 06:30:44;;;;;;;6.40;5.28;;;14.50;99.90;;;;;;5030006;28;20176;-60
2023/08/09 06:33:11;;;;;;;7.10;6.38;;;14.50;99.90;;;;;;5028089;28;20571;-58
2023/08/09 06:35:37;;;;;;;5.70;5.20;;;14.60;99.90;;;;;;5030408;28;20052;-59
2023/08/09 06:38:03;;;;;;;9.07;5.00;;;14.60;99.90;;;;;;5035353;28;20050;-59
2023/08/09 06:40:28;;;;;;;10.10;4.75;;;14.60;99.90;;;;;;5023460;28;20030;-60
2023/08/09 06:42:54;;;;;;;6.78;4.45;;;14.60;99.90;;;;;;5026150;28;20037;-59
2023/08/09 06:45:20;;;;;;;7.25;4.35;;;14.60;99.90;;;;;;5037921;28;20109;-58
2023/08/09 06:47:45;;;;;;;5.88;4.72;;;14.60;99.90;;;;;;5033748;28;20036;-59
2023/08/09 06:50:11;;;;;;;15.70;4.10;;;14.60;99.90;;;;;;5031245;28;20510;-59
2023/08/09 06:52:37;;;;;;;4.38;4.00;;;14.60;99.90;;;;;;5025475;28;20050;-60
2023/08/09 06:55:04;;;;;;;4.15;3.30;;;14.60;99.90;;;;;;5022881;28;20030;-59
2023/08/09 06:57:30;;;;;;;7.13;4.22;;;14.60;99.90;;;;;;5024469;28;20663;-59
2023/08/09 06:59:56;;;;;;;5.10;3.10;;;14.70;99.90;;;;;;5027557;28;20041;-58
2023/08/09 07:02:21;;;;;;;3.85;3.38;;;14.70;99.90;;;;;;5028842;28;20036;-59
2023/08/09 07:04:49;;;;;;;3.90;3.53;;;14.70;99.90;;;;;;5028050;28;20068;-58
2023/08/09 07:07:15;;;;;;;5.75;3.55;;;14.70;99.90;;;;;;5025011;28;20501;-59
2023/08/09 07:09:42;;;;;;;5.03;3.58;;;14.70;99.90;;;;;;5033348;28;20061;-59
2023/08/09 07:12:07;;;;;;;11.45;3.92;;;14.70;99.90;;;;;;5025616;28;20026;-59
2023/08/09 07:14:33;;;;;;;7.45;3.83;;;14.70;99.90;;;;;;5036852;28;20127;-59
2023/08/09 07:16:58;;;;;;;3.60;3.28;;;14.70;99.90;;;;;;5030082;28;20120;-59
2023/08/09 07:19:25;;;;;;;5.57;3.53;;;14.80;99.90;;;;;;5026953;28;20045;-59
2023/08/09 07:21:50;;;;;;;4.15;3.75;;;14.80;99.90;;;;;;5029986;28;20025;-59
2023/08/09 07:24:16;;;;;;;5.10;3.47;;;14.80;99.90;;;;;;5021775;28;20018;-58
2023/08/09 07:26:42;;;;;;;4.47;3.78;;;14.70;99.90;;;;;;5023789;28;20029;-59
2023/08/09 07:29:07;;;;;;;5.68;4.47;;;14.70;99.90;;;;;;5019549;28;20034;-58
2023/08/09 07:31:34;;;;;;;1.35;1.10;;;14.70;99.90;;;;;;5025609;28;20374;-57
2023/08/09 07:34:00;;;;;;;3.03;0.82;;;14.50;99.90;;;;;;5029438;28;20021;-60
2023/08/09 07:36:25;;;;;;;3.58;0.90;;;14.30;99.90;;;;;;5027374;28;20033;-59
2023/08/09 07:38:51;;;;;;;0.70;0.70;;;14.10;99.90;;;;;;5023282;28;20076;-59
2023/08/09 07:41:17;;;;;;;0.60;0.60;;;14.00;99.90;;;;;;5026193;28;20043;-59
2023/08/09 07:43:42;;;;;;;4.60;0.73;;;13.90;99.90;;;;;;5026005;28;20030;-60
2023/08/09 07:46:08;;;;;;;3.30;0.80;;;13.90;99.90;;;;;;5027594;28;20030;-58
2023/08/09 07:48:34;;;;;;;4.20;0.60;;;13.90;99.90;;;;;;5025115;28;20026;-59
2023/08/09 07:51:01;;;;;;;8.50;1.80;;;14.00;99.90;;;;;;5028685;28;20040;-59
2023/08/09 07:53:26;;;;;;;2.97;0.90;;;14.00;99.90;;;;;;5030826;28;20477;-59
2023/08/09 07:55:53;;;;;;;11.27;1.75;;;14.00;99.90;;;;;;5029233;28;20034;-59
2023/08/09 07:58:18;;;;;;;3.70;0.90;;;14.00;99.90;;;;;;5025880;28;20030;-60
2023/08/09 08:00:44;;;;;;;9.05;1.10;;;14.00;99.90;;;;;;5025887;28;20164;-58
2023/08/09 08:03:10;;;;;;;1.50;0.80;;;14.00;99.90;;;;;;5026913;28;20037;-59
2023/08/09 08:05:36;;;;;;;0.85;0.70;;;14.10;99.90;;;;;;5025988;28;20036;-58
2023/08/09 08:08:02;;;;;;;1.42;0.68;;;14.00;99.90;;;;;;5024257;28;20040;-59
2023/08/09 08:10:28;;;;;;;0.90;0.60;;;14.00;99.90;;;;;;5025919;28;20442;-59
2023/08/09 08:12:54;;;;;;;0.50;0.50;;;14.00;99.90;;;;;;5024691;28;20033;-59
2023/08/09 08:15:20;;;;;;;3.20;0.60;;;14.10;99.90;;;;;;5026368;28;20064;-59
2023/08/09 08:17:48;;;;;;;0.65;0.50;;;14.20;99.90;;;;;;5023066;28;20030;-57
2023/08/09 08:20:17;;;;;;;1.13;0.65;;;14.30;99.90;;;;;;5023242;28;20037;-58
2023/08/09 08:22:49;;;;;;;1.63;0.70;;;14.40;99.90;;;;;;5027576;28;20045;-58
2023/08/09 08:25:16;;;;;;;0.70;0.68;;;14.50;99.90;;;;;;5026771;28;20026;-58
2023/08/09 08:27:43;;;;;;;0.98;0.70;;;14.60;99.90;;;;;;5026732;28;20040;-57
2023/08/09 08:30:11;;;;;;;2.63;0.73;;;14.70;99.90;;;;;;5022066;28;20462;-58
2023/08/09 08:32:36;;;;;;;3.78;0.80;;;14.80;99.90;;;;;;5021353;28;20037;-59
2023/08/09 08:35:02;;;;;;;2.42;1.15;;;14.90;99.90;;;;;;5025375;28;20029;-59
2023/08/09 08:37:29;;;;;;;9.80;1.73;;;14.90;99.90;;;;;;5025894;28;20032;-58
2023/08/09 08:39:55;;;;;;;7.35;2.28;;;14.90;99.90;;;;;;5027246;28;20037;-57
2023/08/09 08:42:21;;;;;;;1.73;1.50;;;14.80;99.90;;;;;;5027752;28;20021;-59
2023/08/09 08:44:47;;;;;;;4.50;1.67;;;14.90;99.90;;;;;;5030347;28;20028;-60
2023/08/09 08:47:13;;;;;;;2.15;1.52;;;14.80;99.90;;;;;;5022786;28;20108;-58
2023/08/09 08:49:49;;;;;;;7.65;1.50;;;14.80;99.90;;;;;;5027205;28;20379;-58
2023/08/09 08:52:16;;;;;;;7.95;1.90;;;14.80;99.90;;;;;;5025601;28;20120;-59
2023/08/09 08:54:42;;;;;;;4.53;2.90;;;14.80;99.90;;;;;;5027515;28;20125;-58
2023/08/09 08:57:08;;;;;;;4.15;2.10;;;14.90;99.90;;;;;;5025271;28;20465;-57
2023/08/09 08:59:34;;;;;;;3.50;1.73;;;14.90;99.90;;;;;;5027205;28;20029;-58
2023/08/09 09:02:02;;;;;;;1.30;1.20;;;15.00;99.90;;;;;;5021196;28;20539;-59
2023/08/09 09:04:27;;;;;;;1.30;1.10;;;15.10;99.90;;;;;;5025041;28;20026;-59
2023/08/09 09:06:54;;;;;;;2.45;0.63;;;15.20;99.90;;;;;;5026362;28;20026;-60
2023/08/09 09:09:20;;;;;;;3.40;0.60;;;15.30;99.90;;;;;;5025766;28;20444;-60
2023/08/09 09:11:46;;;;;;;4.07;0.70;;;15.40;99.90;;;;;;5025566;28;20040;-58
2023/08/09 09:14:13;;;;;;;5.57;0.65;;;15.40;99.90;;;;;;5031861;28;20025;-57
2023/08/09 09:16:40;;;;;;;2.33;0.75;;;15.60;99.90;;;;;;5028930;28;20053;-60
2023/08/09 09:19:06;;;;;;;0.70;0.70;;;15.70;99.90;;;;;;5031450;28;20084;-60
2023/08/09 09:21:33;;;;;;;0.80;0.63;;;15.70;99.90;;;;;;5029322;28;20029;-58
2023/08/09 09:24:07;;;;;;;0.60;0.55;;;15.80;99.90;;;;;;5020181;28;20105;-58
2023/08/09 09:26:34;;;;;;;1.55;0.88;;;15.80;99.90;;;;;;5027825;28;20064;-59
2023/08/09 09:29:00;;;;;;;2.15;0.90;;;15.90;99.90;;;;;;5026848;28;20069;-58
2023/08/09 09:31:36;;;;;;;3.33;0.95;;;15.90;99.90;;;;;;5027316;28;20532;-59
2023/08/09 09:34:02;;;;;;;1.25;1.00;;;16.10;99.90;;;;;;5030191;28;20088;-60
2023/08/09 09:36:28;;;;;;;2.20;1.10;;;16.20;99.90;;;;;;5027325;28;20021;-59
2023/08/09 09:38:54;;;;;;;1.67;0.90;;;16.20;99.90;;;;;;5034153;28;20094;-60
2023/08/09 09:41:20;;;;;;;2.20;1.58;;;16.30;99.90;;;;;;5035729;28;20025;-59
2023/08/09 09:43:50;;;;;;;3.08;1.45;;;16.60;99.90;;;;;;5032604;28;20049;-58
2023/08/09 09:46:23;;;;;;;1.10;1.00;;;16.80;99.90;;;;;;5032928;28;20033;-60
2023/08/09 09:48:58;;;;;;;2.58;1.33;;;16.90;99.90;;;;;;5028760;28;20057;-59
2023/08/09 09:51:24;;;;;;;1.67;1.13;;;17.00;99.90;;;;;;5031931;28;20080;-59
2023/08/09 09:53:50;;;;;;;1.75;1.20;;;17.00;99.90;;;;;;5031159;28;20489;-58
2023/08/09 09:56:15;;;;;;;4.88;1.15;;;17.20;99.90;;;;;;5027219;28;20105;-58
2023/08/09 09:58:42;;;;;;;1.80;1.05;;;17.30;99.90;;;;;;5027235;28;20037;-59
2023/08/09 10:01:18;;;;;;;4.10;0.80;;;17.40;99.90;;;;;;5029620;28;20041;-60
2023/08/09 10:03:44;;;;;;;7.25;1.10;;;17.70;99.90;;;;;;5028137;28;20037;-58
2023/08/09 10:06:18;;;;;;;2.70;0.70;;;18.10;99.90;;;;;;5028406;28;20032;-60
2023/08/09 10:08:44;;;;;;;1.70;1.05;;;18.30;99.90;;;;;;5026892;28;20038;-59
2023/08/09 10:11:11;;;;;;;19.42;2.30;;;18.20;99.90;;;;;;5028784;28;20021;-58
2023/08/09 10:13:40;;;;;;;3.50;1.10;;;18.30;99.90;;;;;;5026957;28;20113;-58
2023/08/09 10:16:10;;;;;;;1.95;0.93;;;18.10;99.90;;;;;;5027531;28;20030;-60
2023/08/09 10:18:44;;;;;;;3.67;1.02;;;18.00;99.90;;;;;;5026430;28;20026;-60
2023/08/09 10:21:13;;;;;;;3.30;0.80;;;17.80;99.90;;;;;;5027119;28;20061;-58
2023/08/09 10:23:38;;;;;;;2.97;1.00;;;17.60;99.90;;;;;;5024845;28;20144;-59
2023/08/09 10:26:04;;;;;;;2.22;1.00;;;17.60;99.90;;;;;;5030407;28;20525;-60
2023/08/09 10:28:39;;;;;;;1.88;1.05;;;17.60;99.90;;;;;;5028399;28;20025;-60
2023/08/09 10:31:05;;;;;;;6.55;1.13;;;17.70;99.90;;;;;;5026538;28;20026;-61
2023/08/09 10:33:34;;;;;;;1.27;0.80;;;17.80;99.90;;;;;;5028296;28;20552;-61
2023/08/09 10:35:59;;;;;;;1.38;0.60;;;17.80;99.90;;;;;;5023670;28;20141;-60
2023/08/09 10:38:31;;;;;;;2.88;0.50;;;17.90;99.90;;;;;;5024247;28;20041;-61
2023/08/09 10:40:57;;;;;;;2.15;0.60;;;17.80;99.90;;;;;;5028896;28;20034;-59
2023/08/09 10:43:25;;;;;;;0.50;0.50;;;17.80;99.90;;;;;;5026957;28;20018;-60
2023/08/09 10:45:55;;;;;;;0.80;0.80;;;17.70;99.90;;;;;;5027802;28;20550;-59
2023/08/09 10:48:28;;;;;;;0.50;0.50;;;17.70;99.90;;;;;;5028608;28;20033;-60
2023/08/09 10:51:01;;;;;;;0.45;0.45;;;17.80;99.90;;;;;;5025883;28;20029;-61
2023/08/09 10:53:27;;;;;;;0.30;0.30;;;18.00;99.90;;;;;;5028997;28;20032;-58
2023/08/09 10:55:57;;;;;;;1.60;0.30;;;18.20;99.90;;;;;;5035163;28;20034;-62
2023/08/09 10:58:29;;;;;;;0.40;0.40;;;18.40;99.90;;;;;;5024664;28;20864;-60
2023/08/09 11:00:55;;;;;;;1.33;0.30;;;18.70;99.90;;;;;;5022003;28;20124;-60
2023/08/09 11:03:22;;;;;;;1.70;0.40;;;18.70;99.90;;;;;;5025665;28;20517;-61
2023/08/09 11:05:48;;;;;;;1.23;0.30;;;18.70;99.90;;;;;;5028113;28;20088;-59
2023/08/09 11:08:18;;;;;;;0.55;0.30;;;18.90;99.90;;;;;;5027966;28;20040;-61
2023/08/09 11:10:45;;;;;;;0.47;0.47;;;19.00;99.90;;;;;;5028198;28;20029;-59
2023/08/09 11:13:13;;;;;;;0.43;0.43;;;19.00;99.90;;;;;;5026056;28;20025;-58
2023/08/09 11:15:44;;;;;;;0.50;0.38;;;19.10;99.90;;;;;;5025500;28;20029;-59
2023/08/09 11:18:10;;;;;;;1.70;0.35;;;19.20;99.90;;;;;;5027039;28;20029;-58
2023/08/09 11:20:36;;;;;;;1.30;0.40;;;19.40;99.90;;;;;;5028165;28;20104;-61
2023/08/09 11:23:04;;;;;;;3.63;0.95;;;19.60;99.90;;;;;;5025616;28;20163;-60
2023/08/09 11:25:31;;;;;;;1.08;0.40;;;19.40;99.90;;;;;;5028276;28;20022;-60
2023/08/09 11:27:58;;;;;;;0.40;0.40;;;19.20;99.90;;;;;;5027307;28;20032;-60
2023/08/09 11:30:25;;;;;;;0.70;0.57;;;19.30;99.90;;;;;;5036752;28;20030;-59
2023/08/09 11:32:55;;;;;;;2.05;0.95;;;19.40;99.90;;;;;;5021238;28;20115;-60
2023/08/09 11:35:26;;;;;;;0.70;0.47;;;19.50;99.90;;;;;;5021549;28;20021;-60
2023/08/09 11:37:52;;;;;;;0.40;0.40;;;19.40;99.90;;;;;;5022448;28;20104;-61
2023/08/09 11:40:20;;;;;;;0.98;0.40;;;19.60;99.90;;;;;;5027336;28;20037;-59
2023/08/09 11:42:46;;;;;;;1.35;0.30;;;19.70;99.90;;;;;;5028404;28;20036;-60
2023/08/09 11:45:11;;;;;;;1.17;0.50;;;19.80;99.90;;;;;;5029523;28;20033;-59
2023/08/09 11:47:37;;;;;;;0.40;0.40;;;19.90;99.90;;;;;;5032204;28;20494;-59
2023/08/09 11:50:21;;;;;;;0.70;0.50;;;19.90;99.90;;;;;;5031748;28;20028;-59
2023/08/09 11:52:50;;;;;;;3.75;0.47;;;19.90;99.90;;;;;;5024137;28;20038;-61
2023/08/09 11:55:16;;;;;;;0.40;0.40;;;20.00;99.90;;;;;;5027447;28;20054;-59
2023/08/09 11:57:42;;;;;;;0.30;0.30;;;20.10;99.90;;;;;;5019270;28;20034;-59
2023/08/09 12:00:09;;;;;;;2.15;0.40;;;20.30;99.90;;;;;;5020888;28;20083;-61
2023/08/09 12:02:36;;;;;;;0.68;0.50;;;20.50;99.90;;;;;;5025568;28;20033;-61
2023/08/09 12:05:14;;;;;;;1.13;0.50;;;20.60;99.90;;;;;;5028096;28;20025;-60
2023/08/09 12:07:40;;;;;;;0.50;0.50;;;20.50;99.90;;;;;;5029462;28;20041;-61
2023/08/09 12:10:10;;;;;;;0.63;0.63;;;20.50;99.90;;;;;;5033485;28;20132;-60
2023/08/09 12:12:38;;;;;;;0.77;0.60;;;20.60;99.90;;;;;;5029529;28;20032;-59
2023/08/09 12:15:04;;;;;;;3.38;0.70;;;20.70;99.90;;;;;;5033577;28;20309;-61
2023/08/09 12:17:31;;;;;;;1.48;0.60;;;20.60;99.90;;;;;;5031099;28;20367;-57
2023/08/09 12:19:58;;;;;;;1.13;0.70;;;20.60;99.90;;;;;;5027803;28;20034;-58
2023/08/09 12:22:28;;;;;;;1.40;0.45;;;20.50;99.90;;;;;;5028129;28;20521;-61
2023/08/09 12:24:55;;;;;;;1.25;0.40;;;20.40;99.90;;;;;;5031274;28;20091;-60
2023/08/09 12:27:21;;;;;;;1.02;0.57;;;20.40;99.90;;;;;;5023027;28;20026;-61
2023/08/09 12:29:47;;;;;;;0.63;0.60;;;20.40;99.90;;;;;;5022180;28;20044;-61
2023/08/09 12:32:13;;;;;;;1.00;0.55;;;20.20;99.90;;;;;;5028492;28;20032;-60
2023/08/09 12:34:39;;;;;;;0.40;0.40;;;20.20;99.90;;;;;;5027276;28;20029;-60
2023/08/09 12:37:05;;;;;;;1.73;0.55;;;20.30;99.90;;;;;;5025666;28;20026;-59
2023/08/09 12:39:31;;;;;;;1.25;0.55;;;20.30;99.90;;;;;;5031341;28;20458;-61